JOHN F KENNEDY INTL

KJFK (JFK)
New York, New York
Towered

Vatsim Metar:
KJFK 272151Z 28012KT 10SM SCT041 BKN055 BKN070 07/M02 A2969 RMK AO2 SLP053 T00671017 $

No ATC Online

Traffic

Inbound:
Ident
Type
Name
ETA
Phase
SWR14
A333/L
Tariq Mohammed EGBB
Deplaning
DAL478
H/B77L/L
Dan Cast KEWR
Boarding
TAP209Z
A332/L
Alex
00:43 Z
Descent
BAW183
H/B772/L
Gustavo Schons EGCC
03:42 Z
Descent

Outbound:
Ident
Type
Name
Destination
Phase
KLM642
H/B789/Z
David Bernard KJFK
EHAM
Boarding